SAMR/AFA METAR and TAF weather

Enter ICAO airport designator
Station Type Date Time Source
SAMR METAR 2022/06/22 21:00 UTC NOAA

SAMR 222100Z 14002KT 2500 -SN BR OVC008 02/01 Q1018


Station Type Date Time Source
SAMR Decoded METAR 2022/06/22 21:00 UTC NOAA

San Rafael Aerodrome, Argentina (SAMR) 34-35S 068-24W 748M
Jun 22, 2022 - 05:00 PM EDT / 2022.06.22 2100 UTC
Wind: from the SE (140 degrees) at 2 MPH (2 KT):0
Visibility: 1 mile(s):0
Sky conditions: overcast
Weather: light snow; mist
Temperature: 35 F (2 C)
Dew Point: 33 F (1 C)
Relative Humidity: 93%
Pressure (altimeter): 30.06 in. Hg (1018 hPa)
ob: SAMR 222100Z 14002KT 2500 -SN BR OVC008 02/01 Q1018
cycle: 21

Station Type Date Time Source
SAMR TAF 2022/06/23 18:09 UTC NOAA

TAF SAMR 231700Z 2318/2418 05005KT 9999 SCT030 OVC080 TX08/2319Z TNM03/2411Z

Example: see airport list